createdAt,value
2018-11-04T00:00:20.123Z,9.83
2018-11-04T00:00:56.828Z,9.79
2018-11-04T00:01:31.255Z,9.82
2018-11-04T00:02:06.004Z,9.80
2018-11-04T00:02:40.432Z,9.75
2018-11-04T00:03:14.919Z,9.81
2018-11-04T00:03:49.467Z,9.78
2018-11-04T00:04:24.445Z,9.81
2018-11-04T00:04:59.152Z,9.77
2018-11-04T00:05:33.492Z,9.79
2018-11-04T00:06:08.099Z,9.77
2018-11-04T00:06:42.488Z,9.80
2018-11-04T00:07:16.950Z,9.81
2018-11-04T00:07:52.129Z,9.85
2018-11-04T00:08:26.676Z,9.83
2018-11-04T00:09:01.048Z,9.82
2018-11-04T00:09:35.398Z,9.86
2018-11-04T00:10:11.240Z,9.86
2018-11-04T00:10:45.612Z,9.90
2018-11-04T00:11:19.956Z,9.89
2018-11-04T00:11:55.113Z,9.85
2018-11-04T00:12:29.542Z,9.79
2018-11-04T00:13:04.335Z,9.73
2018-11-04T00:13:38.971Z,9.79
2018-11-04T00:14:13.471Z,9.80
2018-11-04T00:14:47.861Z,9.83
2018-11-04T00:15:22.176Z,9.85
2018-11-04T00:15:56.703Z,9.81
2018-11-04T00:16:31.316Z,9.80
2018-11-04T00:17:06.477Z,9.82
2018-11-04T00:17:41.288Z,9.84
2018-11-04T00:18:15.996Z,9.87
2018-11-04T00:18:50.374Z,9.89
2018-11-04T00:19:24.925Z,9.90
2018-11-04T00:19:59.318Z,9.91
2018-11-04T00:20:33.668Z,9.87
2018-11-04T00:21:08.261Z,9.83
2018-11-04T00:21:42.672Z,9.86
2018-11-04T00:22:17.103Z,9.95
2018-11-04T00:22:51.936Z,9.96
2018-11-04T00:23:26.356Z,10.00
2018-11-04T00:24:00.699Z,9.92
2018-11-04T00:24:35.224Z,9.94
2018-11-04T00:25:12.096Z,9.93
2018-11-04T00:25:46.585Z,9.96
2018-11-04T00:26:21.284Z,9.94
2018-11-04T00:26:55.790Z,9.93
2018-11-04T00:27:30.264Z,9.91
2018-11-04T00:28:04.634Z,9.89
2018-11-04T00:28:39.075Z,9.87
2018-11-04T00:29:13.436Z,9.86
2018-11-04T00:29:47.842Z,9.96
2018-11-04T00:30:22.335Z,9.94
2018-11-04T00:30:56.839Z,9.92
2018-11-04T00:31:31.251Z,10.04
2018-11-04T00:32:05.781Z,10.14
2018-11-04T00:32:40.637Z,10.08
2018-11-04T00:33:15.020Z,10.04
2018-11-04T00:33:49.430Z,10.03
2018-11-04T00:34:23.798Z,10.03
2018-11-04T00:34:58.148Z,10.00
2018-11-04T00:35:32.489Z,9.94
2018-11-04T00:36:07.084Z,9.91
2018-11-04T00:36:41.605Z,9.98
2018-11-04T00:37:16.020Z,10.01
2018-11-04T00:37:50.629Z,10.03
2018-11-04T00:38:24.945Z,10.04
2018-11-04T00:38:59.315Z,10.02
2018-11-04T00:39:33.687Z,10.08
2018-11-04T00:40:09.368Z,10.07
2018-11-04T00:40:43.801Z,10.07
2018-11-04T00:41:18.136Z,10.16
2018-11-04T00:41:52.957Z,10.15
2018-11-04T00:42:27.378Z,10.13
2018-11-04T00:43:01.914Z,10.13
2018-11-04T00:43:36.255Z,10.08
2018-11-04T00:44:10.859Z,10.04
2018-11-04T00:44:45.263Z,10.07
2018-11-04T00:45:19.671Z,10.20
2018-11-04T00:45:54.176Z,10.18
2018-11-04T00:46:28.533Z,10.15
2018-11-04T00:47:04.168Z,10.10
2018-11-04T00:47:39.795Z,10.15
2018-11-04T00:48:14.192Z,10.11
2018-11-04T00:48:48.711Z,10.14
2018-11-04T00:49:23.199Z,10.14
2018-11-04T00:49:57.555Z,10.13
2018-11-04T00:50:31.888Z,10.18
2018-11-04T00:51:06.549Z,10.15
2018-11-04T00:51:40.964Z,10.12
2018-11-04T00:52:15.412Z,10.12
2018-11-04T00:52:49.766Z,10.15
2018-11-04T00:53:24.070Z,10.16
2018-11-04T00:53:58.424Z,10.14
2018-11-04T00:54:32.992Z,10.09
2018-11-04T00:55:07.933Z,10.10
2018-11-04T00:55:48.812Z,10.12
2018-11-04T00:56:23.141Z,10.14
2018-11-04T00:56:57.510Z,10.28
2018-11-04T00:57:31.882Z,10.45
2018-11-04T00:58:06.461Z,10.36
2018-11-04T00:58:40.868Z,10.31
2018-11-04T00:59:15.252Z,10.30
2018-11-04T00:59:49.651Z,10.31
2018-11-04T01:00:24.141Z,10.23
2018-11-04T01:00:58.534Z,10.26
2018-11-04T01:01:32.912Z,10.27
2018-11-04T01:02:07.468Z,10.25
2018-11-04T01:02:42.529Z,10.22
2018-11-04T01:03:17.285Z,10.26
2018-11-04T01:03:51.661Z,10.21
2018-11-04T01:04:26.032Z,10.28
2018-11-04T01:05:00.470Z,10.26
2018-11-04T01:05:34.844Z,10.23
2018-11-04T01:06:09.502Z,10.22
2018-11-04T01:06:43.855Z,10.20
2018-11-04T01:07:18.559Z,10.20
2018-11-04T01:07:52.930Z,10.21
2018-11-04T01:08:27.319Z,10.28
2018-11-04T01:09:01.779Z,10.25
2018-11-04T01:09:36.375Z,10.22
2018-11-04T01:10:12.489Z,10.23
2018-11-04T01:10:46.896Z,10.24
2018-11-04T01:11:21.334Z,10.26
2018-11-04T01:11:55.693Z,10.27
2018-11-04T01:12:30.246Z,10.22
2018-11-04T01:13:04.634Z,10.23
2018-11-04T01:13:39.507Z,10.23
2018-11-04T01:14:13.893Z,10.22
2018-11-04T01:14:48.252Z,10.21
2018-11-04T01:15:22.579Z,10.28
2018-11-04T01:15:56.931Z,10.23
2018-11-04T01:16:31.412Z,10.21
2018-11-04T01:17:06.683Z,10.28
2018-11-04T01:17:42.215Z,10.27
2018-11-04T01:18:16.616Z,10.27
2018-11-04T01:18:50.947Z,10.22
2018-11-04T01:19:25.297Z,10.22
2018-11-04T01:19:59.680Z,10.17
2018-11-04T01:20:34.025Z,10.24
2018-11-04T01:21:08.993Z,10.25
2018-11-04T01:21:43.901Z,10.25
2018-11-04T01:22:18.232Z,10.25
2018-11-04T01:22:52.585Z,10.24
2018-11-04T01:23:27.128Z,10.21
2018-11-04T01:24:04.796Z,10.16
2018-11-04T01:24:39.473Z,10.18
2018-11-04T01:25:14.073Z,10.13
2018-11-04T01:25:48.472Z,10.28
2018-11-04T01:26:22.800Z,10.26
2018-11-04T01:26:57.520Z,10.23
2018-11-04T01:27:32.228Z,10.24
2018-11-04T01:28:07.099Z,10.30
2018-11-04T01:28:41.501Z,10.34
2018-11-04T01:29:15.927Z,10.25
2018-11-04T01:29:50.429Z,10.22
2018-11-04T01:30:24.851Z,10.27
2018-11-04T01:30:59.365Z,10.26
2018-11-04T01:31:39.916Z,10.37
2018-11-04T01:32:14.863Z,10.40
2018-11-04T01:32:49.191Z,10.40
2018-11-04T01:33:23.584Z,10.33
2018-11-04T01:33:57.981Z,10.31
2018-11-04T01:34:32.316Z,10.38
2018-11-04T01:35:07.116Z,10.38
2018-11-04T01:35:41.576Z,10.40
2018-11-04T01:36:16.024Z,10.50
2018-11-04T01:36:50.737Z,10.47
2018-11-04T01:37:25.043Z,10.43
2018-11-04T01:37:59.575Z,10.52
2018-11-04T01:38:33.897Z,10.52
2018-11-04T01:39:09.352Z,10.53
2018-11-04T01:39:43.704Z,10.62
2018-11-04T01:40:18.058Z,10.53
2018-11-04T01:40:52.445Z,10.61
2018-11-04T01:41:27.012Z,10.65
2018-11-04T01:42:01.426Z,10.51
2018-11-04T01:42:35.922Z,10.47
2018-11-04T01:43:10.424Z,10.38
2018-11-04T01:43:45.025Z,10.56
2018-11-04T01:44:19.348Z,10.67
2018-11-04T01:44:53.712Z,10.55
2018-11-04T01:45:28.024Z,10.64
2018-11-04T01:46:02.372Z,10.72
2018-11-04T01:46:36.689Z,10.65
2018-11-04T01:47:11.137Z,10.54
2018-11-04T01:47:45.600Z,10.60
2018-11-04T01:48:19.945Z,10.58
2018-11-04T01:48:54.268Z,10.67
2018-11-04T01:49:28.636Z,10.59
2018-11-04T01:50:03.043Z,10.51
2018-11-04T01:50:37.424Z,10.59
2018-11-04T01:51:12.060Z,10.56
2018-11-04T01:51:46.433Z,10.55
2018-11-04T01:52:20.768Z,10.52
2018-11-04T01:52:55.067Z,10.57
2018-11-04T01:53:29.468Z,10.56
2018-11-04T01:54:03.867Z,10.53
2018-11-04T01:54:38.400Z,10.64
2018-11-04T01:55:13.399Z,10.61
2018-11-04T01:55:47.813Z,10.66
2018-11-04T01:56:22.148Z,10.63
2018-11-04T01:56:56.452Z,10.64
2018-11-04T01:57:30.937Z,10.63
2018-11-04T01:58:06.169Z,10.57
2018-11-04T01:58:40.549Z,10.71
2018-11-04T01:59:14.922Z,10.71
2018-11-04T01:59:49.305Z,10.59
2018-11-04T02:00:23.680Z,10.74
2018-11-04T02:00:58.011Z,10.78
2018-11-04T02:01:32.326Z,10.72
2018-11-04T02:02:06.706Z,10.65
2018-11-04T02:02:41.605Z,10.64
2018-11-04T02:03:16.005Z,10.84
2018-11-04T02:03:50.684Z,10.88
2018-11-04T02:04:25.029Z,10.94
2018-11-04T02:04:59.368Z,10.91
2018-11-04T02:05:33.720Z,10.83
2018-11-04T02:06:08.070Z,10.78
2018-11-04T02:06:42.503Z,10.83
2018-11-04T02:07:16.976Z,10.71
2018-11-04T02:07:51.304Z,10.73
2018-11-04T02:08:25.616Z,10.79
2018-11-04T02:08:59.963Z,10.88
2018-11-04T02:09:34.310Z,10.92
2018-11-04T02:10:10.933Z,10.93
2018-11-04T02:10:45.365Z,10.82
2018-11-04T02:11:19.721Z,10.79
2018-11-04T02:11:54.059Z,10.73
2018-11-04T02:12:28.612Z,10.80
2018-11-04T02:13:02.976Z,10.76
2018-11-04T02:13:37.384Z,10.73
2018-11-04T02:14:11.798Z,10.69
2018-11-04T02:14:46.236Z,10.66
2018-11-04T02:15:20.597Z,10.78
2018-11-04T02:15:54.908Z,10.72
2018-11-04T02:16:29.259Z,10.82
2018-11-04T02:17:03.629Z,10.79
2018-11-04T02:17:38.223Z,10.75
2018-11-04T02:18:12.715Z,10.71
2018-11-04T02:18:47.083Z,10.71
2018-11-04T02:19:21.377Z,10.89
2018-11-04T02:19:55.752Z,10.95
2018-11-04T02:20:30.169Z,10.89
2018-11-04T02:21:04.500Z,10.80
2018-11-04T02:21:38.969Z,10.73
2018-11-04T02:22:13.378Z,10.71
2018-11-04T02:22:47.809Z,10.66
2018-11-04T02:23:22.116Z,10.62
2018-11-04T02:23:56.427Z,10.66
2018-11-04T02:24:31.238Z,10.80
2018-11-04T02:25:06.572Z,10.72
2018-11-04T02:25:40.978Z,10.78
2018-11-04T02:26:15.556Z,10.86
2018-11-04T02:26:50.026Z,10.79
2018-11-04T02:27:24.344Z,10.75
2018-11-04T02:27:58.687Z,10.80
2018-11-04T02:28:33.145Z,10.86
2018-11-04T02:29:07.491Z,10.91
2018-11-04T02:29:42.035Z,10.76
2018-11-04T02:30:17.386Z,10.77
2018-11-04T02:30:51.835Z,10.78
2018-11-04T02:31:26.380Z,10.77
2018-11-04T02:32:00.700Z,10.80
2018-11-04T02:32:35.042Z,10.73
2018-11-04T02:33:09.426Z,10.76
2018-11-04T02:33:43.920Z,10.81
2018-11-04T02:34:18.291Z,10.87
2018-11-04T02:34:52.884Z,10.90
2018-11-04T02:35:27.242Z,10.77
2018-11-04T02:36:01.592Z,10.92
2018-11-04T02:36:35.946Z,10.91
2018-11-04T02:37:10.420Z,11.00
2018-11-04T02:37:45.019Z,10.92
2018-11-04T02:38:19.396Z,10.89
2018-11-04T02:38:53.761Z,10.87
2018-11-04T02:39:28.077Z,10.86
2018-11-04T02:40:02.432Z,10.78
2018-11-04T02:40:37.448Z,10.77
2018-11-04T02:41:11.942Z,10.72
2018-11-04T02:41:46.430Z,10.78
2018-11-04T02:42:20.877Z,10.88
2018-11-04T02:42:55.244Z,10.82
2018-11-04T02:43:29.599Z,10.83
2018-11-04T02:44:03.982Z,10.78
2018-11-04T02:44:38.380Z,10.75
2018-11-04T02:45:13.020Z,10.83
2018-11-04T02:45:47.445Z,10.87
2018-11-04T02:46:21.785Z,10.93
2018-11-04T02:46:56.162Z,10.81
2018-11-04T02:47:30.685Z,10.85
2018-11-04T02:48:05.181Z,10.82
2018-11-04T02:48:39.600Z,10.90
2018-11-04T02:49:14.051Z,10.90
2018-11-04T02:49:48.387Z,10.88
2018-11-04T02:50:22.738Z,10.90
2018-11-04T02:50:57.125Z,10.95
2018-11-04T02:51:32.083Z,10.94
2018-11-04T02:52:06.585Z,10.99
2018-11-04T02:52:41.285Z,11.00
2018-11-04T02:53:15.744Z,11.05
2018-11-04T02:53:50.062Z,11.11
2018-11-04T02:54:24.370Z,10.97
2018-11-04T02:54:58.720Z,10.88
2018-11-04T02:55:33.234Z,10.91
2018-11-04T02:56:07.994Z,10.98
2018-11-04T02:56:42.484Z,10.96
2018-11-04T02:57:16.945Z,10.89
2018-11-04T02:57:51.413Z,10.85
2018-11-04T02:58:25.779Z,10.77
2018-11-04T02:59:00.178Z,10.84
2018-11-04T02:59:34.536Z,10.81
2018-11-04T03:00:11.276Z,10.78
2018-11-04T03:00:45.669Z,10.88
2018-11-04T03:01:19.989Z,10.90
2018-11-04T03:01:54.381Z,10.96
2018-11-04T03:02:28.873Z,10.86
2018-11-04T03:03:03.285Z,10.82
2018-11-04T03:03:37.721Z,10.85
2018-11-04T03:04:12.236Z,10.79
2018-11-04T03:04:46.660Z,10.85
2018-11-04T03:05:21.004Z,10.83
2018-11-04T03:05:55.364Z,10.76
2018-11-04T03:06:29.706Z,10.78
2018-11-04T03:07:04.158Z,10.83
2018-11-04T03:07:38.754Z,10.94
2018-11-04T03:08:13.109Z,10.86
2018-11-04T03:08:47.576Z,11.04
2018-11-04T03:09:22.053Z,11.08
2018-11-04T03:09:56.391Z,11.12
2018-11-04T03:10:30.761Z,11.02
2018-11-04T03:11:05.507Z,10.95
2018-11-04T03:11:40.118Z,11.00
2018-11-04T03:12:14.478Z,10.95
2018-11-04T03:12:49.000Z,10.94
2018-11-04T03:13:23.391Z,10.84
2018-11-04T03:13:57.789Z,10.86
2018-11-04T03:14:32.672Z,10.82
2018-11-04T03:15:07.656Z,10.81
2018-11-04T03:15:42.191Z,10.79
2018-11-04T03:16:16.568Z,10.86
2018-11-04T03:16:51.002Z,10.89
2018-11-04T03:17:25.705Z,10.86
2018-11-04T03:18:00.099Z,10.91
2018-11-04T03:18:34.464Z,10.90
2018-11-04T03:19:09.191Z,10.88
2018-11-04T03:19:43.668Z,10.96
2018-11-04T03:20:18.065Z,10.96
2018-11-04T03:20:52.549Z,10.90
2018-11-04T03:21:27.048Z,10.94
2018-11-04T03:22:01.469Z,10.95
2018-11-04T03:22:35.897Z,10.89
2018-11-04T03:23:10.559Z,10.88
2018-11-04T03:23:45.032Z,10.99
2018-11-04T03:24:19.404Z,10.89
2018-11-04T03:24:53.807Z,10.89
2018-11-04T03:25:28.148Z,10.91
2018-11-04T03:26:03.130Z,10.97
2018-11-04T03:26:37.599Z,11.08
2018-11-04T03:27:12.042Z,11.02
2018-11-04T03:27:46.608Z,10.96
2018-11-04T03:28:21.381Z,10.99
2018-11-04T03:28:55.940Z,11.15
2018-11-04T03:29:30.320Z,11.16
2018-11-04T03:30:05.274Z,11.05
2018-11-04T03:30:40.107Z,11.00
2018-11-04T03:31:14.501Z,10.98
2018-11-04T03:31:49.019Z,10.98
2018-11-04T03:32:23.351Z,11.06
2018-11-04T03:32:57.699Z,11.02
2018-11-04T03:33:32.034Z,10.99
2018-11-04T03:34:06.396Z,10.90
2018-11-04T03:34:41.001Z,10.88
2018-11-04T03:35:15.401Z,10.87
2018-11-04T03:35:49.784Z,10.81
2018-11-04T03:36:24.200Z,10.91
2018-11-04T03:36:58.540Z,10.88
2018-11-04T03:37:32.987Z,10.94
2018-11-04T03:38:07.973Z,10.96
2018-11-04T03:38:42.435Z,10.94
2018-11-04T03:39:17.400Z,11.00
2018-11-04T03:39:51.775Z,10.97
2018-11-04T03:40:26.117Z,10.93
2018-11-04T03:41:00.483Z,10.95
2018-11-04T03:41:34.814Z,11.10
2018-11-04T03:42:09.619Z,11.10
2018-11-04T03:42:44.729Z,11.00
2018-11-04T03:43:25.481Z,10.95
2018-11-04T03:43:59.840Z,11.05
2018-11-04T03:44:34.224Z,10.97
2018-11-04T03:45:09.369Z,10.94
2018-11-04T03:45:43.895Z,10.92
2018-11-04T03:46:18.278Z,10.99
2018-11-04T03:46:52.668Z,10.94
2018-11-04T03:47:27.371Z,10.99
2018-11-04T03:48:02.147Z,10.96
2018-11-04T03:48:36.652Z,10.94
2018-11-04T03:49:11.036Z,10.94
2018-11-04T03:49:45.459Z,10.94
2018-11-04T03:50:19.819Z,11.06
2018-11-04T03:50:54.217Z,11.05
2018-11-04T03:51:28.794Z,11.05
2018-11-04T03:52:03.415Z,11.11
2018-11-04T03:52:37.949Z,11.20
2018-11-04T03:53:12.626Z,11.34
2018-11-04T03:53:47.365Z,11.43
2018-11-04T03:54:21.715Z,11.37
2018-11-04T03:54:56.056Z,11.36
2018-11-04T03:55:30.405Z,11.37
2018-11-04T03:56:05.453Z,11.44
2018-11-04T03:56:40.050Z,11.32
2018-11-04T03:57:14.521Z,11.28
2018-11-04T03:57:49.069Z,11.22
2018-11-04T03:58:23.419Z,11.12
2018-11-04T03:58:57.929Z,11.13
2018-11-04T03:59:32.283Z,11.03
2018-11-04T04:00:09.915Z,11.00
2018-11-04T04:00:44.464Z,11.01
2018-11-04T04:01:18.853Z,10.98
2018-11-04T04:01:53.309Z,11.11
2018-11-04T04:02:27.659Z,11.05
2018-11-04T04:03:02.052Z,11.01
2018-11-04T04:03:36.414Z,11.00
2018-11-04T04:04:10.891Z,11.01
2018-11-04T04:04:45.327Z,11.02
2018-11-04T04:05:19.694Z,11.00
2018-11-04T04:05:54.126Z,10.93
2018-11-04T04:06:28.466Z,10.93
2018-11-04T04:07:03.111Z,10.94
2018-11-04T04:07:37.568Z,10.99
2018-11-04T04:08:11.992Z,10.97
2018-11-04T04:08:46.417Z,10.98
2018-11-04T04:09:20.764Z,11.11
2018-11-04T04:09:55.140Z,11.02
2018-11-04T04:10:29.497Z,11.02
2018-11-04T04:11:03.904Z,11.15
2018-11-04T04:11:38.355Z,11.18
2018-11-04T04:12:12.824Z,11.23
2018-11-04T04:12:47.544Z,11.30
2018-11-04T04:13:22.044Z,11.24
2018-11-04T04:13:56.420Z,11.13
2018-11-04T04:14:30.757Z,11.07
2018-11-04T04:15:06.288Z,11.01
2018-11-04T04:15:40.673Z,11.01
2018-11-04T04:16:15.163Z,11.00
2018-11-04T04:16:49.494Z,10.95
2018-11-04T04:17:23.852Z,10.91
2018-11-04T04:17:58.249Z,10.98
2018-11-04T04:18:32.756Z,11.18
2018-11-04T04:19:07.197Z,11.05
2018-11-04T04:19:41.713Z,11.08
2018-11-04T04:20:16.119Z,11.01
2018-11-04T04:20:54.653Z,10.99
2018-11-04T04:21:29.053Z,11.03
2018-11-04T04:22:03.849Z,11.05
2018-11-04T04:22:38.253Z,11.16
2018-11-04T04:23:12.670Z,11.16
2018-11-04T04:23:47.072Z,11.10
2018-11-04T04:24:21.431Z,11.10
2018-11-04T04:24:55.773Z,11.06
2018-11-04T04:25:30.124Z,10.99
2018-11-04T04:26:04.529Z,10.97
2018-11-04T04:26:38.908Z,10.98
2018-11-04T04:27:13.780Z,10.99
2018-11-04T04:27:48.200Z,11.09
2018-11-04T04:28:22.745Z,11.11
2018-11-04T04:28:57.092Z,11.03
2018-11-04T04:29:31.438Z,11.05
2018-11-04T04:30:08.287Z,10.98
2018-11-04T04:30:42.648Z,10.95
2018-11-04T04:31:17.085Z,11.10
2018-11-04T04:31:51.464Z,11.05
2018-11-04T04:32:25.836Z,11.11
2018-11-04T04:33:00.139Z,11.15
2018-11-04T04:33:34.500Z,11.23
2018-11-04T04:34:08.908Z,11.08
2018-11-04T04:34:43.272Z,11.15
2018-11-04T04:35:17.900Z,11.13
2018-11-04T04:35:52.277Z,11.21
2018-11-04T04:36:26.630Z,11.14
2018-11-04T04:37:00.984Z,11.17
2018-11-04T04:37:35.338Z,11.14
2018-11-04T04:38:10.124Z,11.13
2018-11-04T04:38:44.676Z,11.05
2018-11-04T04:39:19.144Z,11.05
2018-11-04T04:39:53.530Z,11.14
2018-11-04T04:40:27.875Z,11.13
2018-11-04T04:41:02.248Z,11.00
2018-11-04T04:41:36.694Z,10.92
2018-11-04T04:42:11.091Z,10.97
2018-11-04T04:42:45.467Z,11.02
2018-11-04T04:43:19.803Z,11.15
2018-11-04T04:43:54.145Z,11.27
2018-11-04T04:44:28.478Z,11.14
2018-11-04T04:45:02.817Z,11.21
2018-11-04T04:45:37.215Z,11.06
2018-11-04T04:46:11.704Z,11.06
2018-11-04T04:46:46.067Z,10.97
2018-11-04T04:47:20.423Z,10.98
2018-11-04T04:47:54.917Z,10.99
2018-11-04T04:48:29.266Z,10.90
2018-11-04T04:49:03.619Z,10.96
2018-11-04T04:49:38.048Z,10.89
2018-11-04T04:50:12.619Z,10.95
2018-11-04T04:50:47.224Z,10.97
2018-11-04T04:51:21.388Z,11.07
2018-11-04T04:51:55.774Z,11.04
2018-11-04T04:52:30.128Z,11.01
2018-11-04T04:53:05.570Z,11.15
2018-11-04T04:53:40.084Z,11.12
2018-11-04T04:54:14.524Z,11.24
2018-11-04T04:54:48.875Z,11.18
2018-11-04T04:55:23.240Z,11.06
2018-11-04T04:55:58.105Z,11.04
2018-11-04T04:56:32.480Z,11.03
2018-11-04T04:57:06.872Z,10.96
2018-11-04T04:57:41.375Z,11.08
2018-11-04T04:58:15.771Z,11.07
2018-11-04T04:58:50.146Z,11.01
2018-11-04T04:59:24.636Z,10.99
2018-11-04T04:59:59.076Z,10.98
2018-11-04T05:00:33.606Z,11.04
2018-11-04T05:01:08.024Z,10.97
2018-11-04T05:01:42.530Z,10.97
2018-11-04T05:02:16.884Z,11.17
2018-11-04T05:02:51.245Z,11.29
2018-11-04T05:03:25.571Z,11.16
2018-11-04T05:03:59.931Z,11.06
2018-11-04T05:04:34.281Z,11.01
2018-11-04T05:05:08.662Z,11.02
2018-11-04T05:05:43.052Z,11.07
2018-11-04T05:06:17.399Z,11.15
2018-11-04T05:06:51.775Z,11.18
2018-11-04T05:07:26.112Z,11.23
2018-11-04T05:08:00.449Z,11.14
2018-11-04T05:08:34.771Z,11.11
2018-11-04T05:09:09.369Z,11.09
2018-11-04T05:09:43.614Z,11.29
2018-11-04T05:10:17.975Z,11.15
2018-11-04T05:10:52.345Z,11.12
2018-11-04T05:11:26.695Z,11.14
2018-11-04T05:12:01.084Z,11.09
2018-11-04T05:12:35.420Z,11.19
2018-11-04T05:13:10.177Z,11.17
2018-11-04T05:13:44.624Z,11.10
2018-11-04T05:14:19.034Z,11.14
2018-11-04T05:14:53.516Z,11.16
2018-11-04T05:15:27.842Z,11.17
2018-11-04T05:16:02.180Z,11.19
2018-11-04T05:16:36.795Z,11.20
2018-11-04T05:17:11.341Z,11.24
2018-11-04T05:17:45.775Z,11.24
2018-11-04T05:18:20.118Z,11.20
2018-11-04T05:18:54.440Z,11.14
2018-11-04T05:19:28.909Z,11.32
2018-11-04T05:20:03.299Z,11.33
2018-11-04T05:20:37.742Z,11.28
2018-11-04T05:21:12.160Z,11.27
2018-11-04T05:21:46.843Z,11.17
2018-11-04T05:22:21.163Z,11.23
2018-11-04T05:22:55.529Z,11.16
2018-11-04T05:23:29.863Z,11.14
2018-11-04T05:24:04.683Z,11.13
2018-11-04T05:24:39.089Z,11.18
2018-11-04T05:25:13.627Z,11.21
2018-11-04T05:25:47.973Z,11.29
2018-11-04T05:26:22.371Z,11.14
2018-11-04T05:26:56.713Z,11.21
2018-11-04T05:27:31.068Z,11.10
2018-11-04T05:28:05.863Z,11.04
2018-11-04T05:28:40.256Z,11.01
2018-11-04T05:29:14.624Z,11.14
2018-11-04T05:29:49.155Z,11.19
2018-11-04T05:30:23.536Z,11.33
2018-11-04T05:30:57.934Z,11.24
2018-11-04T05:31:32.244Z,11.25
2018-11-04T05:32:06.948Z,11.23
2018-11-04T05:32:41.297Z,11.12
2018-11-04T05:33:15.675Z,11.07
2018-11-04T05:33:50.016Z,11.06
2018-11-04T05:34:24.919Z,11.05
2018-11-04T05:34:59.231Z,10.99
2018-11-04T05:35:33.572Z,11.10
2018-11-04T05:36:07.971Z,11.13
2018-11-04T05:36:42.396Z,11.11
2018-11-04T05:37:16.858Z,11.05
2018-11-04T05:37:51.187Z,11.01
2018-11-04T05:38:25.636Z,11.01
2018-11-04T05:39:00.747Z,11.06
2018-11-04T05:39:35.679Z,11.22
2018-11-04T05:40:11.043Z,11.18
2018-11-04T05:40:45.552Z,11.24
2018-11-04T05:41:19.888Z,11.18
2018-11-04T05:41:54.816Z,11.16
2018-11-04T05:42:29.145Z,11.21
2018-11-04T05:43:03.576Z,11.10
2018-11-04T05:43:38.127Z,11.15
2018-11-04T05:44:12.844Z,11.08
2018-11-04T05:44:47.286Z,11.11
2018-11-04T05:45:21.646Z,11.18
2018-11-04T05:45:55.976Z,11.11
2018-11-04T05:46:30.282Z,11.11
2018-11-04T05:47:04.652Z,11.05
2018-11-04T05:47:39.224Z,11.13
2018-11-04T05:48:13.692Z,11.17
2018-11-04T05:48:48.592Z,11.24
2018-11-04T05:49:22.996Z,11.24
2018-11-04T05:49:57.880Z,11.11
2018-11-04T05:50:32.323Z,11.16
2018-11-04T05:51:06.727Z,11.18
2018-11-04T05:51:41.213Z,11.07
2018-11-04T05:52:15.749Z,11.03
2018-11-04T05:52:50.104Z,10.97
2018-11-04T05:53:24.425Z,10.89
2018-11-04T05:53:58.735Z,10.90
2018-11-04T05:54:33.254Z,10.87
2018-11-04T05:55:09.008Z,10.86
2018-11-04T05:55:43.401Z,10.89
2018-11-04T05:56:17.767Z,10.91
2018-11-04T05:56:52.128Z,10.98
2018-11-04T05:57:26.494Z,10.87
2018-11-04T05:58:00.826Z,10.90
2018-11-04T05:58:35.152Z,11.01
2018-11-04T05:59:09.605Z,10.95
2018-11-04T05:59:44.049Z,10.98
2018-11-04T06:00:18.428Z,11.04
2018-11-04T06:00:52.951Z,11.03
2018-11-04T06:01:27.376Z,10.97
2018-11-04T06:02:01.735Z,10.95
2018-11-04T06:02:36.094Z,10.93
2018-11-04T06:03:10.531Z,10.92
2018-11-04T06:03:44.996Z,10.88
2018-11-04T06:04:19.311Z,10.87
2018-11-04T06:04:53.665Z,10.85
2018-11-04T06:05:27.987Z,10.82
2018-11-04T06:06:02.366Z,10.97
2018-11-04T06:06:36.726Z,10.93
2018-11-04T06:07:11.208Z,10.97
2018-11-04T06:07:45.556Z,11.04
2018-11-04T06:08:19.900Z,11.07
2018-11-04T06:08:54.243Z,11.09
2018-11-04T06:09:28.572Z,11.26
2018-11-04T06:10:03.109Z,11.25
2018-11-04T06:10:37.469Z,11.17
2018-11-04T06:11:11.849Z,11.08
2018-11-04T06:11:46.792Z,11.04
2018-11-04T06:12:21.161Z,10.96
2018-11-04T06:12:55.500Z,10.91
2018-11-04T06:13:30.211Z,11.08
2018-11-04T06:14:04.587Z,11.00
2018-11-04T06:14:39.030Z,10.97
2018-11-04T06:15:13.412Z,10.91
2018-11-04T06:15:47.803Z,10.98
2018-11-04T06:16:22.328Z,10.94
2018-11-04T06:16:56.706Z,11.13
2018-11-04T06:17:31.090Z,11.10
2018-11-04T06:18:05.866Z,11.15
2018-11-04T06:18:40.678Z,11.11
2018-11-04T06:19:15.316Z,11.07
2018-11-04T06:19:50.008Z,11.05
2018-11-04T06:20:24.530Z,10.96
2018-11-04T06:20:59.193Z,11.01
2018-11-04T06:21:33.543Z,11.04
2018-11-04T06:22:07.932Z,11.26
2018-11-04T06:22:43.554Z,11.26
2018-11-04T06:23:17.958Z,11.12
2018-11-04T06:23:52.457Z,11.02
2018-11-04T06:24:27.385Z,10.97
2018-11-04T06:25:01.831Z,10.96
2018-11-04T06:25:36.202Z,10.92
2018-11-04T06:26:10.887Z,11.03
2018-11-04T06:26:45.282Z,11.03
2018-11-04T06:27:20.450Z,11.00
2018-11-04T06:27:55.391Z,11.09
2018-11-04T06:28:29.972Z,11.05
2018-11-04T06:29:04.788Z,10.99
2018-11-04T06:29:39.297Z,11.10
2018-11-04T06:30:14.180Z,11.13
2018-11-04T06:30:48.531Z,11.09
2018-11-04T06:31:22.922Z,11.07
2018-11-04T06:31:57.246Z,11.19
2018-11-04T06:32:31.603Z,11.11
2018-11-04T06:33:06.132Z,11.02
2018-11-04T06:33:41.812Z,11.03
2018-11-04T06:34:16.415Z,11.12
2018-11-04T06:34:50.842Z,11.24
2018-11-04T06:35:25.228Z,11.18
2018-11-04T06:35:59.604Z,11.12
2018-11-04T06:36:34.016Z,10.99
2018-11-04T06:37:08.670Z,11.06
2018-11-04T06:37:43.348Z,11.15
2018-11-04T06:38:17.737Z,11.21
2018-11-04T06:38:52.122Z,11.08
2018-11-04T06:39:26.473Z,10.94
2018-11-04T06:40:00.841Z,10.89
2018-11-04T06:40:35.169Z,10.88
2018-11-04T06:41:09.711Z,10.94
2018-11-04T06:41:44.335Z,11.09
2018-11-04T06:42:19.084Z,11.22
2018-11-04T06:42:53.408Z,11.15
2018-11-04T06:43:27.750Z,11.05
2018-11-04T06:44:02.077Z,11.00
2018-11-04T06:44:36.460Z,10.98
2018-11-04T06:45:11.276Z,11.02
2018-11-04T06:45:45.683Z,11.05
2018-11-04T06:46:20.251Z,11.06
2018-11-04T06:46:54.757Z,11.07
2018-11-04T06:47:29.314Z,10.99
2018-11-04T06:48:03.852Z,10.98
2018-11-04T06:48:38.268Z,11.05
2018-11-04T06:49:12.630Z,11.02
2018-11-04T06:49:47.075Z,11.14
2018-11-04T06:50:22.127Z,11.07
2018-11-04T06:50:56.448Z,11.09
2018-11-04T06:51:30.779Z,11.08
2018-11-04T06:52:05.827Z,11.10
2018-11-04T06:52:40.261Z,11.21
2018-11-04T06:53:14.703Z,11.13
2018-11-04T06:53:49.082Z,11.10
2018-11-04T06:54:24.013Z,11.10
2018-11-04T06:54:58.370Z,11.18
2018-11-04T06:55:32.711Z,11.23
2018-11-04T06:57:10.078Z,11.21
2018-11-04T06:57:44.596Z,11.18
2018-11-04T06:58:19.144Z,11.06
2018-11-04T06:58:53.448Z,11.00
2018-11-04T06:59:34.234Z,11.16
2018-11-04T07:00:10.375Z,11.23
2018-11-04T07:00:44.830Z,11.18
2018-11-04T07:01:19.262Z,11.15
2018-11-04T07:01:53.600Z,11.10
2018-11-04T07:02:28.014Z,11.05
2018-11-04T07:03:02.358Z,10.99
2018-11-04T07:03:36.828Z,11.11
2018-11-04T07:04:22.493Z,11.07
2018-11-04T07:04:56.863Z,11.04
2018-11-04T07:05:31.349Z,11.01
2018-11-04T07:06:05.743Z,10.94
2018-11-04T07:06:40.380Z,10.93
2018-11-04T07:07:14.937Z,10.96
2018-11-04T07:07:49.320Z,11.08
2018-11-04T07:08:23.673Z,11.22
2018-11-04T07:08:58.119Z,11.22
2018-11-04T07:09:32.632Z,11.26
2018-11-04T07:10:08.944Z,11.35
2018-11-04T07:10:43.310Z,11.41
2018-11-04T07:11:17.751Z,11.33
2018-11-04T07:11:52.120Z,11.36
2018-11-04T07:12:26.652Z,11.21
2018-11-04T07:13:01.043Z,11.14
2018-11-04T07:13:35.521Z,11.08
2018-11-04T07:14:09.964Z,11.08
2018-11-04T07:14:44.692Z,11.17
2018-11-04T07:15:25.380Z,11.17
2018-11-04T07:15:59.726Z,11.25
2018-11-04T07:16:34.064Z,11.21
2018-11-04T07:17:08.460Z,11.07
2018-11-04T07:17:42.909Z,11.13
2018-11-04T07:18:17.452Z,11.17
2018-11-04T07:18:51.799Z,11.24
2018-11-04T07:19:26.135Z,11.21
2018-11-04T07:20:00.511Z,11.20
2018-11-04T07:20:35.057Z,11.22
2018-11-04T07:21:09.460Z,11.13
2018-11-04T07:21:44.281Z,11.07
2018-11-04T07:22:18.642Z,11.12
2018-11-04T07:22:53.239Z,11.15
2018-11-04T07:23:27.620Z,11.10
2018-11-04T07:24:02.201Z,11.23
2018-11-04T07:24:36.545Z,11.28
2018-11-04T07:25:10.971Z,11.23
2018-11-04T07:25:45.444Z,11.33
2018-11-04T07:26:19.875Z,11.26
2018-11-04T07:26:54.208Z,11.29
2018-11-04T07:27:28.669Z,11.29